sensor_id;sensor_type;location;lat;lon;timestamp;pressure;altitude;pressure_sealevel;temperature;humidity
36062;BME280;22123;52.412;20.970;2022-09-27T00:00:38;99455.25;;;8.50;100.00
36062;BME280;22123;52.412;20.970;2022-09-27T00:03:06;99452.19;;;8.53;100.00
36062;BME280;22123;52.412;20.970;2022-09-27T00:05:31;99444.78;;;8.56;100.00
36062;BME280;22123;52.412;20.970;2022-09-27T00:07:57;99448.13;;;8.58;100.00
36062;BME280;22123;52.412;20.970;2022-09-27T00:10:22;99454.31;;;8.58;100.00
36062;BME280;22123;52.412;20.970;2022-09-27T00:12:47;99443.56;;;8.58;100.00
36062;BME280;22123;52.412;20.970;2022-09-27T00:15:13;99444.22;;;8.60;100.00
36062;BME280;22123;52.412;20.970;2022-09-27T00:17:39;99447.56;;;8.62;100.00
36062;BME280;22123;52.412;20.970;2022-09-27T00:20:05;99440.34;;;8.63;100.00
36062;BME280;22123;52.412;20.970;2022-09-27T00:22:30;99435.81;;;8.63;100.00
36062;BME280;22123;52.412;20.970;2022-09-27T00:24:56;99434.78;;;8.64;100.00
36062;BME280;22123;52.412;20.970;2022-09-27T00:27:21;99437.28;;;8.66;100.00
36062;BME280;22123;52.412;20.970;2022-09-27T00:29:46;99439.13;;;8.65;100.00
36062;BME280;22123;52.412;20.970;2022-09-27T00:32:12;99439.13;;;8.65;100.00
36062;BME280;22123;52.412;20.970;2022-09-27T00:34:38;99434.41;;;8.67;100.00
36062;BME280;22123;52.412;20.970;2022-09-27T00:37:04;99429.72;;;8.69;100.00
36062;BME280;22123;52.412;20.970;2022-09-27T00:39:29;99422.09;;;8.73;100.00
36062;BME280;22123;52.412;20.970;2022-09-27T00:41:54;99412.84;;;8.76;100.00
36062;BME280;22123;52.412;20.970;2022-09-27T00:46:59;99416.03;;;8.79;100.00
36062;BME280;22123;52.412;20.970;2022-09-27T00:52:12;99411.75;;;8.85;100.00
36062;BME280;22123;52.412;20.970;2022-09-27T00:54:40;99407.22;;;8.85;100.00
36062;BME280;22123;52.412;20.970;2022-09-27T00:57:06;99404.53;;;8.85;100.00
36062;BME280;22123;52.412;20.970;2022-09-27T00:59:45;99401.84;;;8.85;100.00
36062;BME280;22123;52.412;20.970;2022-09-27T01:02:11;99399.78;;;8.87;100.00
36062;BME280;22123;52.412;20.970;2022-09-27T01:04:37;99397.78;;;8.90;100.00
36062;BME280;22123;52.412;20.970;2022-09-27T01:07:03;99405.81;;;8.90;100.00
36062;BME280;22123;52.412;20.970;2022-09-27T01:09:29;99395.72;;;8.92;100.00
36062;BME280;22123;52.412;20.970;2022-09-27T01:30:52;99385.59;;;9.09;100.00
36062;BME280;22123;52.412;20.970;2022-09-27T01:33:43;99381.06;;;9.09;100.00
36062;BME280;22123;52.412;20.970;2022-09-27T01:36:14;99383.56;;;9.11;100.00
36062;BME280;22123;52.412;20.970;2022-09-27T01:38:46;99377.16;;;9.12;100.00
36062;BME280;22123;52.412;20.970;2022-09-27T01:41:27;99381.53;;;9.13;100.00
36062;BME280;22123;52.412;20.970;2022-09-27T01:44:06;99374.28;;;9.13;100.00
36062;BME280;22123;52.412;20.970;2022-09-27T01:46:37;99370.59;;;9.14;100.00
36062;BME280;22123;52.412;20.970;2022-09-27T01:49:05;99378.47;;;9.16;100.00
36062;BME280;22123;52.412;20.970;2022-09-27T01:51:37;99369.19;;;9.18;100.00
36062;BME280;22123;52.412;20.970;2022-09-27T01:54:05;99372.91;;;9.17;100.00
36062;BME280;22123;52.412;20.970;2022-09-27T01:56:36;99369.19;;;9.18;100.00
36062;BME280;22123;52.412;20.970;2022-09-27T02:01:28;99363.81;;;9.18;100.00
36062;BME280;22123;52.412;20.970;2022-09-27T02:03:55;99367.34;;;9.19;100.00
36062;BME280;22123;52.412;20.970;2022-09-27T02:06:30;99371.88;;;9.18;100.00
36062;BME280;22123;52.412;20.970;2022-09-27T02:09:00;99374.75;;;9.17;100.00
36062;BME280;22123;52.412;20.970;2022-09-27T02:11:27;99372.25;;;9.15;100.00
36062;BME280;22123;52.412;20.970;2022-09-27T02:14:03;99371.59;;;9.13;100.00
36062;BME280;22123;52.412;20.970;2022-09-27T02:16:50;99373.28;;;9.14;100.00
36062;BME280;22123;52.412;20.970;2022-09-27T02:22:02;99361.53;;;9.15;100.00
36062;BME280;22123;52.412;20.970;2022-09-27T02:24:36;99362.53;;;9.14;100.00
36062;BME280;22123;52.412;20.970;2022-09-27T02:27:08;99352.63;;;9.15;100.00
36062;BME280;22123;52.412;20.970;2022-09-27T02:29:38;99356.31;;;9.14;100.00
36062;BME280;22123;52.412;20.970;2022-09-27T02:32:05;99356.16;;;9.15;100.00
36062;BME280;22123;52.412;20.970;2022-09-27T02:34:30;99353.47;;;9.15;100.00
36062;BME280;22123;52.412;20.970;2022-09-27T02:36:58;99352.63;;;9.15;100.00
36062;BME280;22123;52.412;20.970;2022-09-27T02:39:24;99349.94;;;9.15;100.00
36062;BME280;22123;52.412;20.970;2022-09-27T02:41:49;99346.44;;;9.14;100.00
36062;BME280;22123;52.412;20.970;2022-09-27T02:44:14;99340.41;;;9.12;100.00
36062;BME280;22123;52.412;20.970;2022-09-27T02:59:55;99346.25;;;9.16;100.00
36062;BME280;22123;52.412;20.970;2022-09-27T03:04:56;99339.00;;;9.16;100.00
36062;BME280;22123;52.412;20.970;2022-09-27T03:07:24;99329.09;;;9.17;100.00
36062;BME280;22123;52.412;20.970;2022-09-27T03:09:51;99329.09;;;9.17;100.00
36062;BME280;22123;52.412;20.970;2022-09-27T03:12:17;99339.00;;;9.16;100.00
36062;BME280;22123;52.412;20.970;2022-09-27T03:14:46;99334.00;;;9.13;100.00
36062;BME280;22123;52.412;20.970;2022-09-27T03:17:12;99338.94;;;9.10;100.00
36062;BME280;22123;52.412;20.970;2022-09-27T03:19:37;99335.59;;;9.08;100.00
36062;BME280;22123;52.412;20.970;2022-09-27T03:22:02;99328.56;;;9.07;100.00
36062;BME280;22123;52.412;20.970;2022-09-27T03:24:27;99328.94;;;9.03;100.00
36062;BME280;22123;52.412;20.970;2022-09-27T03:26:53;99321.09;;;9.02;100.00
36062;BME280;22123;52.412;20.970;2022-09-27T03:29:18;99333.06;;;8.99;100.00
36062;BME280;22123;52.412;20.970;2022-09-27T03:31:43;99336.09;;;8.96;100.00
36062;BME280;22123;52.412;20.970;2022-09-27T03:34:09;99328.44;;;8.93;100.00
36062;BME280;22123;52.412;20.970;2022-09-27T03:36:34;99324.91;;;8.93;100.00
36062;BME280;22123;52.412;20.970;2022-09-27T03:38:59;99322.66;;;8.96;100.00
36062;BME280;22123;52.412;20.970;2022-09-27T03:41:24;99327.03;;;8.97;100.00
36062;BME280;22123;52.412;20.970;2022-09-27T03:43:50;99299.03;;;8.85;100.00
36062;BME280;22123;52.412;20.970;2022-09-27T03:46:15;99323.97;;;9.00;100.00
36062;BME280;22123;52.412;20.970;2022-09-27T03:48:40;99321.94;;;9.02;100.00
36062;BME280;22123;52.412;20.970;2022-09-27T03:51:06;99315.53;;;9.03;100.00
36062;BME280;22123;52.412;20.970;2022-09-27T03:53:32;99317.00;;;9.06;100.00
36062;BME280;22123;52.412;20.970;2022-09-27T03:55:57;99309.41;;;9.10;100.00
36062;BME280;22123;52.412;20.970;2022-09-27T03:58:23;99306.34;;;9.13;100.00
36062;BME280;22123;52.412;20.970;2022-09-27T04:00:48;99303.28;;;9.16;100.00
36062;BME280;22123;52.412;20.970;2022-09-27T04:03:13;99302.06;;;9.18;100.00
36062;BME280;22123;52.412;20.970;2022-09-27T04:05:39;99302.50;;;9.22;100.00
36062;BME280;22123;52.412;20.970;2022-09-27T04:08:04;99306.66;;;9.25;100.00
36062;BME280;22123;52.412;20.970;2022-09-27T04:10:30;99300.09;;;9.27;100.00
36062;BME280;22123;52.412;20.970;2022-09-27T04:12:55;99294.13;;;9.32;100.00
36062;BME280;22123;52.412;20.970;2022-09-27T04:15:21;99288.38;;;9.35;100.00
36062;BME280;22123;52.412;20.970;2022-09-27T04:17:46;99289.66;;;9.39;100.00
36062;BME280;22123;52.412;20.970;2022-09-27T04:20:12;99294.44;;;9.44;100.00
36062;BME280;22123;52.412;20.970;2022-09-27T04:22:38;99293.03;;;9.48;100.00
36062;BME280;22123;52.412;20.970;2022-09-27T04:25:03;99295.94;;;9.53;100.00
36062;BME280;22123;52.412;20.970;2022-09-27T04:27:29;99289.34;;;9.55;100.00
36062;BME280;22123;52.412;20.970;2022-09-27T04:29:54;99286.94;;;9.61;100.00
36062;BME280;22123;52.412;20.970;2022-09-27T04:32:20;99287.34;;;9.64;100.00
36062;BME280;22123;52.412;20.970;2022-09-27T04:34:45;99281.59;;;9.67;100.00
36062;BME280;22123;52.412;20.970;2022-09-27T04:37:29;99284.53;;;9.72;100.00
36062;BME280;22123;52.412;20.970;2022-09-27T04:39:54;99291.38;;;9.75;100.00
36062;BME280;22123;52.412;20.970;2022-09-27T04:42:19;99288.31;;;9.78;100.00
36062;BME280;22123;52.412;20.970;2022-09-27T04:44:45;99286.22;;;9.80;100.00
36062;BME280;22123;52.412;20.970;2022-09-27T04:47:11;99277.16;;;9.81;100.00
36062;BME280;22123;52.412;20.970;2022-09-27T04:49:37;99280.28;;;9.85;100.00
36062;BME280;22123;52.412;20.970;2022-09-27T04:52:02;99277.22;;;9.88;100.00
36062;BME280;22123;52.412;20.970;2022-09-27T04:54:30;99288.38;;;9.91;100.00
36062;BME280;22123;52.412;20.970;2022-09-27T04:56:55;99285.31;;;9.95;100.00
36062;BME280;22123;52.412;20.970;2022-09-27T04:59:20;99284.91;;;9.98;100.00
36062;BME280;22123;52.412;20.970;2022-09-27T05:01:46;99290.72;;;10.01;100.00
36062;BME280;22123;52.412;20.970;2022-09-27T05:04:11;99281.44;;;10.04;100.00
36062;BME280;22123;52.412;20.970;2022-09-27T05:06:36;99289.94;;;10.07;100.00
36062;BME280;22123;52.412;20.970;2022-09-27T05:09:02;99285.22;;;10.09;100.00
36062;BME280;22123;52.412;20.970;2022-09-27T05:11:27;99280.44;;;10.12;100.00
36062;BME280;22123;52.412;20.970;2022-09-27T05:13:53;99285.44;;;10.15;100.00
36062;BME280;22123;52.412;20.970;2022-09-27T05:16:18;99287.09;;;10.16;100.00
36062;BME280;22123;52.412;20.970;2022-09-27T05:18:44;99278.00;;;10.17;100.00
36062;BME280;22123;52.412;20.970;2022-09-27T05:21:09;99275.94;;;10.19;100.00
36062;BME280;22123;52.412;20.970;2022-09-27T05:23:34;99283.59;;;10.22;100.00
36062;BME280;22123;52.412;20.970;2022-09-27T05:26:06;99278.03;;;10.23;100.00
36062;BME280;22123;52.412;20.970;2022-09-27T05:28:31;99277.00;;;10.24;100.00
36062;BME280;22123;52.412;20.970;2022-09-27T05:30:59;99281.38;;;10.25;100.00
36062;BME280;22123;52.412;20.970;2022-09-27T05:33:24;99276.81;;;10.26;100.00
36062;BME280;22123;52.412;20.970;2022-09-27T05:35:50;99282.19;;;10.26;100.00
36062;BME280;22123;52.412;20.970;2022-09-27T05:38:16;99276.81;;;10.26;100.00
36062;BME280;22123;52.412;20.970;2022-09-27T05:40:41;99277.63;;;10.26;100.00
36062;BME280;22123;52.412;20.970;2022-09-27T05:43:08;99274.94;;;10.26;100.00
36062;BME280;22123;52.412;20.970;2022-09-27T05:45:33;99276.59;;;10.27;100.00
36062;BME280;22123;52.412;20.970;2022-09-27T05:47:59;99268.34;;;10.29;100.00
36062;BME280;22123;52.412;20.970;2022-09-27T05:50:24;99277.03;;;10.31;100.00
36062;BME280;22123;52.412;20.970;2022-09-27T05:52:50;99259.84;;;10.32;100.00
36062;BME280;22123;52.412;20.970;2022-09-27T05:55:16;99266.91;;;10.33;100.00
36062;BME280;22123;52.412;20.970;2022-09-27T05:57:41;99267.34;;;10.37;100.00
36062;BME280;22123;52.412;20.970;2022-09-27T06:00:07;99260.34;;;10.36;100.00
36062;BME280;22123;52.412;20.970;2022-09-27T06:02:33;99275.47;;;10.43;100.00
36062;BME280;22123;52.412;20.970;2022-09-27T06:04:59;99276.72;;;10.48;100.00
36062;BME280;22123;52.412;20.970;2022-09-27T06:07:25;99273.00;;;10.49;100.00
36062;BME280;22123;52.412;20.970;2022-09-27T06:09:50;99272.59;;;10.52;100.00
36062;BME280;22123;52.412;20.970;2022-09-27T06:12:15;99275.91;;;10.54;100.00
36062;BME280;22123;52.412;20.970;2022-09-27T06:14:41;99281.94;;;10.56;100.00
36062;BME280;22123;52.412;20.970;2022-09-27T06:17:08;99281.75;;;10.57;100.00
36062;BME280;22123;52.412;20.970;2022-09-27T06:19:33;99283.59;;;10.57;100.00
36062;BME280;22123;52.412;20.970;2022-09-27T06:21:59;99281.09;;;10.55;100.00
36062;BME280;22123;52.412;20.970;2022-09-27T06:24:25;99281.09;;;10.55;100.00
36062;BME280;22123;52.412;20.970;2022-09-27T06:26:50;99275.91;;;10.54;100.00
36062;BME280;22123;52.412;20.970;2022-09-27T06:29:21;99279.63;;;10.53;100.00
36062;BME280;22123;52.412;20.970;2022-09-27T06:31:47;99284.84;;;10.54;100.00
36062;BME280;22123;52.412;20.970;2022-09-27T06:34:13;99284.00;;;10.54;100.00
36062;BME280;22123;52.412;20.970;2022-09-27T06:36:38;99287.31;;;10.56;100.00
36062;BME280;22123;52.412;20.970;2022-09-27T06:39:03;99285.47;;;10.56;100.00
36062;BME280;22123;52.412;20.970;2022-09-27T06:41:29;99276.38;;;10.57;100.00
36062;BME280;22123;52.412;20.970;2022-09-27T06:43:54;99277.59;;;10.61;100.00
36062;BME280;22123;52.412;20.970;2022-09-27T06:46:20;99279.91;;;10.65;100.00
36062;BME280;22123;52.412;20.970;2022-09-27T06:48:45;99272.66;;;10.65;100.00
36062;BME280;22123;52.412;20.970;2022-09-27T06:51:11;99272.25;;;10.68;100.00
36062;BME280;22123;52.412;20.970;2022-09-27T06:53:36;99263.56;;;10.66;100.00
36062;BME280;22123;52.412;20.970;2022-09-27T06:56:01;99260.88;;;10.66;100.00
36062;BME280;22123;52.412;20.970;2022-09-27T06:58:27;99258.16;;;10.66;100.00
36062;BME280;22123;52.412;20.970;2022-09-27T07:01:11;99255.28;;;10.68;100.00
36062;BME280;22123;52.412;20.970;2022-09-27T07:03:37;99257.75;;;10.69;100.00
36062;BME280;22123;52.412;20.970;2022-09-27T07:06:05;99265.63;;;10.71;100.00
36062;BME280;22123;52.412;20.970;2022-09-27T07:08:31;99262.72;;;10.72;100.00
36062;BME280;22123;52.412;20.970;2022-09-27T07:11:01;99265.22;;;10.74;100.00
36062;BME280;22123;52.412;20.970;2022-09-27T07:13:27;99271.63;;;10.73;100.00
36062;BME280;22123;52.412;20.970;2022-09-27T07:15:56;99291.91;;;10.69;100.00
36062;BME280;22123;52.412;20.970;2022-09-27T07:18:22;99301.63;;;10.63;100.00
36062;BME280;22123;52.412;20.970;2022-09-27T07:20:47;99305.75;;;10.59;100.00
36062;BME280;22123;52.412;20.970;2022-09-27T07:23:14;99315.66;;;10.58;100.00
36062;BME280;22123;52.412;20.970;2022-09-27T07:25:40;99308.84;;;10.56;100.00
36062;BME280;22123;52.412;20.970;2022-09-27T07:28:06;99313.59;;;10.54;100.00
36062;BME280;22123;52.412;20.970;2022-09-27T07:30:32;99312.78;;;10.53;100.00
36062;BME280;22123;52.412;20.970;2022-09-27T07:33:01;99298.47;;;10.53;100.00
36062;BME280;22123;52.412;20.970;2022-09-27T07:35:27;99296.19;;;10.50;100.00
36062;BME280;22123;52.412;20.970;2022-09-27T07:37:52;99300.53;;;10.51;100.00
36062;BME280;22123;52.412;20.970;2022-09-27T07:40:18;99313.78;;;10.52;100.00
36062;BME280;22123;52.412;20.970;2022-09-27T07:42:44;99316.28;;;10.54;100.00
36062;BME280;22123;52.412;20.970;2022-09-27T07:45:09;99307.19;;;10.55;100.00
36062;BME280;22123;52.412;20.970;2022-09-27T07:47:36;99310.69;;;10.55;100.00
36062;BME280;22123;52.412;20.970;2022-09-27T07:50:02;99302.88;;;10.60;100.00
36062;BME280;22123;52.412;20.970;2022-09-27T07:52:29;99301.63;;;10.63;100.00
36062;BME280;22123;52.412;20.970;2022-09-27T07:54:54;99293.38;;;10.65;100.00
36062;BME280;22123;52.412;20.970;2022-09-27T07:57:20;99301.03;;;10.68;100.00
36062;BME280;22123;52.412;20.970;2022-09-27T07:59:46;99289.22;;;10.69;100.00
36062;BME280;22123;52.412;20.970;2022-09-27T08:02:15;99281.56;;;10.72;100.00
36062;BME280;22123;52.412;20.970;2022-09-27T08:04:41;99288.03;;;10.78;100.00
36062;BME280;22123;52.412;20.970;2022-09-27T08:07:11;99285.31;;;10.85;100.00
36062;BME280;22123;52.412;20.970;2022-09-27T08:09:36;99293.84;;;10.88;100.00
36062;BME280;22123;52.412;20.970;2022-09-27T08:12:02;99295.31;;;10.91;100.00
36062;BME280;22123;52.412;20.970;2022-09-27T08:14:29;99282.25;;;10.94;100.00
36062;BME280;22123;52.412;20.970;2022-09-27T08:16:54;99284.31;;;10.99;100.00
36062;BME280;22123;52.412;20.970;2022-09-27T08:19:19;99272.75;;;11.05;100.00
36062;BME280;22123;52.412;20.970;2022-09-27T08:21:45;99280.63;;;11.13;100.00
36062;BME280;22123;52.412;20.970;2022-09-27T08:24:10;99273.19;;;11.16;100.00
36062;BME280;22123;52.412;20.970;2022-09-27T08:26:35;99281.06;;;11.24;100.00
36062;BME280;22123;52.412;20.970;2022-09-27T08:29:01;99280.66;;;11.27;100.00
36062;BME280;22123;52.412;20.970;2022-09-27T08:31:26;99291.03;;;11.30;100.00
36062;BME280;22123;52.412;20.970;2022-09-27T08:33:51;99284.59;;;11.31;100.00
36062;BME280;22123;52.412;20.970;2022-09-27T08:36:17;99282.13;;;11.36;100.00
36062;BME280;22123;52.412;20.970;2022-09-27T08:38:42;99284.41;;;11.39;100.00
36062;BME280;22123;52.412;20.970;2022-09-27T08:52:03;99296.03;;;11.40;100.00
36062;BME280;22123;52.412;20.970;2022-09-27T08:54:30;99290.44;;;11.41;100.00
36062;BME280;22123;52.412;20.970;2022-09-27T08:56:57;99287.53;;;11.43;100.00
36062;BME280;22123;52.412;20.970;2022-09-27T08:59:28;99292.69;;;11.44;100.00
36062;BME280;22123;52.412;20.970;2022-09-27T09:01:54;99296.81;;;11.47;100.00
36062;BME280;22123;52.412;20.970;2022-09-27T09:04:23;99296.44;;;11.50;100.00
36062;BME280;22123;52.412;20.970;2022-09-27T09:12:22;99292.28;;;11.61;100.00
36062;BME280;22123;52.412;20.970;2022-09-27T09:27:53;99280.44;;;11.75;100.00
36062;BME280;22123;52.412;20.970;2022-09-27T09:30:24;99279.22;;;11.78;100.00
36062;BME280;22123;52.412;20.970;2022-09-27T09:35:35;99268.41;;;11.84;100.00
36062;BME280;22123;52.412;20.970;2022-09-27T09:38:02;99263.47;;;11.95;100.00
36062;BME280;22123;52.412;20.970;2022-09-27T09:40:31;99257.00;;;12.03;100.00
36062;BME280;22123;52.412;20.970;2022-09-27T09:43:07;99264.88;;;12.11;100.00
36062;BME280;22123;52.412;20.970;2022-09-27T09:45:41;99266.72;;;12.17;100.00
36062;BME280;22123;52.412;20.970;2022-09-27T09:48:27;99263.16;;;12.23;100.00
36062;BME280;22123;52.412;20.970;2022-09-27T09:50:55;99267.09;;;12.34;100.00
36062;BME280;22123;52.412;20.970;2022-09-27T09:56:43;99255.00;;;12.43;100.00
36062;BME280;22123;52.412;20.970;2022-09-27T10:01:19;99273.09;;;12.43;100.00
36062;BME280;22123;52.412;20.970;2022-09-27T10:03:45;99274.72;;;12.44;100.00
36062;BME280;22123;52.412;20.970;2022-09-27T10:06:10;99268.28;;;12.45;100.00
36062;BME280;22123;52.412;20.970;2022-09-27T10:08:37;99262.06;;;12.44;100.00
36062;BME280;22123;52.412;20.970;2022-09-27T10:11:03;99264.34;;;12.47;100.00
36062;BME280;22123;52.412;20.970;2022-09-27T10:13:29;99258.50;;;12.50;100.00
36062;BME280;22123;52.412;20.970;2022-09-27T10:16:13;99258.88;;;12.54;100.00
36062;BME280;22123;52.412;20.970;2022-09-27T10:18:40;99262.00;;;12.58;100.00
36062;BME280;22123;52.412;20.970;2022-09-27T10:21:19;99252.03;;;12.58;100.00
36062;BME280;22123;52.412;20.970;2022-09-27T10:24:02;99246.63;;;12.58;100.00
36062;BME280;22123;52.412;20.970;2022-09-27T10:26:28;99252.22;;;12.63;100.00
36062;BME280;22123;52.412;20.970;2022-09-27T10:28:54;99244.06;;;12.70;100.00
36062;BME280;22123;52.412;20.970;2022-09-27T10:31:19;99240.69;;;12.81;100.00
36062;BME280;22123;52.412;20.970;2022-09-27T10:33:56;99242.03;;;12.97;100.00
36062;BME280;22123;52.412;20.970;2022-09-27T10:38:53;99239.91;;;13.06;100.00
36062;BME280;22123;52.412;20.970;2022-09-27T10:43:44;99234.94;;;13.03;100.00
36062;BME280;22123;52.412;20.970;2022-09-27T10:48:37;99237.47;;;12.98;100.00
36062;BME280;22123;52.412;20.970;2022-09-27T10:51:06;99232.09;;;12.98;100.00
36062;BME280;22123;52.412;20.970;2022-09-27T10:53:33;99234.34;;;13.01;100.00
36062;BME280;22123;52.412;20.970;2022-09-27T10:55:59;99234.50;;;13.06;100.00
36062;BME280;22123;52.412;20.970;2022-09-27T10:58:33;99239.47;;;13.09;100.00
36062;BME280;22123;52.412;20.970;2022-09-27T11:01:03;99233.03;;;13.10;100.00
36062;BME280;22123;52.412;20.970;2022-09-27T11:03:30;99237.38;;;13.11;100.00
36062;BME280;22123;52.412;20.970;2022-09-27T11:05:56;99231.97;;;13.11;100.00
36062;BME280;22123;52.412;20.970;2022-09-27T11:08:27;99226.81;;;13.10;100.00
36062;BME280;22123;52.412;20.970;2022-09-27T11:13:37;99220.53;;;13.09;100.00
36062;BME280;22123;52.412;20.970;2022-09-27T11:16:07;99214.50;;;13.14;100.00
36062;BME280;22123;52.412;20.970;2022-09-27T11:26:08;99212.28;;;13.29;100.00
36062;BME280;22123;52.412;20.970;2022-09-27T11:31:30;99201.03;;;13.32;100.00
36062;BME280;22123;52.412;20.970;2022-09-27T11:39:12;99209.59;;;13.29;100.00
36062;BME280;22123;52.412;20.970;2022-09-27T12:02:26;99178.94;;;13.67;100.00
36062;BME280;22123;52.412;20.970;2022-09-27T12:07:41;99187.19;;;13.91;100.00
36062;BME280;22123;52.412;20.970;2022-09-27T12:10:12;99181.09;;;13.96;100.00
36062;BME280;22123;52.412;20.970;2022-09-27T12:12:38;99178.31;;;14.02;100.00
36062;BME280;22123;52.412;20.970;2022-09-27T12:15:10;99178.47;;;14.07;100.00
36062;BME280;22123;52.412;20.970;2022-09-27T12:17:38;99185.47;;;14.15;100.00
36062;BME280;22123;52.412;20.970;2022-09-27T12:20:08;99186.66;;;14.19;100.00
36062;BME280;22123;52.412;20.970;2022-09-27T12:22:37;99175.47;;;14.16;100.00
36062;BME280;22123;52.412;20.970;2022-09-27T12:25:04;99176.16;;;14.11;100.00
36062;BME280;22123;52.412;20.970;2022-09-27T12:27:33;99171.19;;;14.08;100.00
36062;BME280;22123;52.412;20.970;2022-09-27T12:30:00;99170.56;;;14.06;100.00
36062;BME280;22123;52.412;20.970;2022-09-27T12:32:26;99162.44;;;14.06;100.00
36062;BME280;22123;52.412;20.970;2022-09-27T12:37:23;99160.13;;;14.09;100.00
36062;BME280;22123;52.412;20.970;2022-09-27T12:39:53;99151.78;;;14.11;100.00
36062;BME280;22123;52.412;20.970;2022-09-27T12:42:22;99154.03;;;14.14;100.00
36062;BME280;22123;52.412;20.970;2022-09-27T12:44:48;99158.41;;;14.15;100.00
36062;BME280;22123;52.412;20.970;2022-09-27T12:52:16;99150.13;;;14.10;100.00
36062;BME280;22123;52.412;20.970;2022-09-27T12:54:51;99146.84;;;14.08;100.00
36062;BME280;22123;52.412;20.970;2022-09-27T13:12:36;99149.28;;;14.28;100.00
36062;BME280;22123;52.412;20.970;2022-09-27T13:22:52;99132.72;;;14.36;100.00
36062;BME280;22123;52.412;20.970;2022-09-27T13:28:20;99124.03;;;14.46;100.00
36062;BME280;22123;52.412;20.970;2022-09-27T13:30:49;99126.16;;;14.44;100.00
36062;BME280;22123;52.412;20.970;2022-09-27T13:35:41;99126.78;;;14.27;100.00
36062;BME280;22123;52.412;20.970;2022-09-27T13:38:23;99122.31;;;14.21;100.00
36062;BME280;22123;52.412;20.970;2022-09-27T13:40:48;99120.34;;;14.10;100.00
36062;BME280;22123;52.412;20.970;2022-09-27T13:50:59;99120.16;;;13.93;100.00
36062;BME280;22123;52.412;20.970;2022-09-27T13:55:51;99115.88;;;13.85;100.00
36062;BME280;22123;52.412;20.970;2022-09-27T14:00:51;99117.47;;;13.74;100.00
36062;BME280;22123;52.412;20.970;2022-09-27T14:03:25;99109.19;;;13.69;100.00
36062;BME280;22123;52.412;20.970;2022-09-27T14:05:59;99120.69;;;13.65;100.00
36062;BME280;22123;52.412;20.970;2022-09-27T14:11:02;99103.50;;;13.59;100.00
36062;BME280;22123;52.412;20.970;2022-09-27T14:13:28;99099.38;;;13.56;100.00
36062;BME280;22123;52.412;20.970;2022-09-27T14:15:56;99105.63;;;13.57;100.00
36062;BME280;22123;52.412;20.970;2022-09-27T14:18:22;99098.31;;;13.57;100.00
36062;BME280;22123;52.412;20.970;2022-09-27T14:20:48;99092.91;;;13.57;100.00
36062;BME280;22123;52.412;20.970;2022-09-27T14:23:22;99091.88;;;13.59;100.00
36062;BME280;22123;52.412;20.970;2022-09-27T14:25:49;99086.88;;;13.55;100.00
36062;BME280;22123;52.412;20.970;2022-09-27T14:28:22;99085.47;;;13.53;100.00
36062;BME280;22123;52.412;20.970;2022-09-27T14:30:48;99084.03;;;13.50;100.00
36062;BME280;22123;52.412;20.970;2022-09-27T14:33:26;99080.72;;;13.48;100.00
36062;BME280;22123;52.412;20.970;2022-09-27T14:35:52;99076.38;;;13.47;100.00
36062;BME280;22123;52.412;20.970;2022-09-27T14:38:36;99081.19;;;13.45;100.00
36062;BME280;22123;52.412;20.970;2022-09-27T14:41:02;99076.84;;;13.44;100.00
36062;BME280;22123;52.412;20.970;2022-09-27T14:43:29;99078.69;;;13.44;100.00
36062;BME280;22123;52.412;20.970;2022-09-27T14:45:57;99080.59;;;13.43;100.00
36062;BME280;22123;52.412;20.970;2022-09-27T14:48:28;99082.09;;;13.39;100.00
36062;BME280;22123;52.412;20.970;2022-09-27T14:53:21;99083.78;;;13.33;100.00
36062;BME280;22123;52.412;20.970;2022-09-27T14:55:47;99081.28;;;13.32;100.00
36062;BME280;22123;52.412;20.970;2022-09-27T14:58:12;99073.63;;;13.29;100.00
36062;BME280;22123;52.412;20.970;2022-09-27T15:00:39;99080.31;;;13.26;100.00
36062;BME280;22123;52.412;20.970;2022-09-27T15:03:11;99087.00;;;13.23;100.00
36062;BME280;22123;52.412;20.970;2022-09-27T15:05:43;99081.00;;;13.21;100.00
36062;BME280;22123;52.412;20.970;2022-09-27T15:08:08;99082.25;;;13.19;100.00
36062;BME280;22123;52.412;20.970;2022-09-27T15:10:36;99086.44;;;13.15;100.00
36062;BME280;22123;52.412;20.970;2022-09-27T15:13:02;99079.41;;;13.14;100.00
36062;BME280;22123;52.412;20.970;2022-09-27T15:15:32;99087.97;;;13.11;100.00
36062;BME280;22123;52.412;20.970;2022-09-27T15:17:59;99088.16;;;13.09;100.00
36062;BME280;22123;52.412;20.970;2022-09-27T15:20:26;99088.59;;;13.06;100.00
36062;BME280;22123;52.412;20.970;2022-09-27T15:22:55;99082.00;;;13.02;100.00
36062;BME280;22123;52.412;20.970;2022-09-27T15:27:56;99085.59;;;12.96;100.00
36062;BME280;22123;52.412;20.970;2022-09-27T15:30:27;99083.13;;;12.94;100.00
36062;BME280;22123;52.412;20.970;2022-09-27T15:32:53;99076.28;;;12.92;100.00
36062;BME280;22123;52.412;20.970;2022-09-27T15:35:24;99079.19;;;12.90;100.00
36062;BME280;22123;52.412;20.970;2022-09-27T15:37:49;99082.13;;;12.88;100.00
36062;BME280;22123;52.412;20.970;2022-09-27T15:42:56;99077.78;;;12.87;100.00
36062;BME280;22123;52.412;20.970;2022-09-27T15:45:29;99077.78;;;12.87;100.00
36062;BME280;22123;52.412;20.970;2022-09-27T15:47:55;99074.25;;;12.87;100.00
36062;BME280;22123;52.412;20.970;2022-09-27T15:52:49;99056.00;;;12.82;100.00
36062;BME280;22123;52.412;20.970;2022-09-27T15:55:19;99055.41;;;12.80;100.00
36062;BME280;22123;52.412;20.970;2022-09-27T15:57:49;99055.25;;;12.75;100.00